sensor_id;sensor_type;location;lat;lon;timestamp;P1;durP1;ratioP1;P2;durP2;ratioP2
60472;SDS011;46318;52.716;6.444;2023-05-10T00:01:30;16.08;;;14.45;;
60472;SDS011;46318;52.716;6.444;2023-05-10T00:03:56;15.52;;;14.02;;
60472;SDS011;46318;52.716;6.444;2023-05-10T00:06:22;16.65;;;14.77;;
60472;SDS011;46318;52.716;6.444;2023-05-10T00:08:47;17.55;;;15.85;;
60472;SDS011;46318;52.716;6.444;2023-05-10T00:11:13;17.08;;;15.43;;
60472;SDS011;46318;52.716;6.444;2023-05-10T00:13:39;16.85;;;15.23;;
60472;SDS011;46318;52.716;6.444;2023-05-10T00:16:05;17.25;;;15.45;;
60472;SDS011;46318;52.716;6.444;2023-05-10T00:18:31;17.02;;;15.38;;
60472;SDS011;46318;52.716;6.444;2023-05-10T00:20:57;16.90;;;15.00;;
60472;SDS011;46318;52.716;6.444;2023-05-10T00:23:23;16.48;;;14.75;;
60472;SDS011;46318;52.716;6.444;2023-05-10T00:25:48;16.30;;;14.63;;
60472;SDS011;46318;52.716;6.444;2023-05-10T00:28:14;16.92;;;15.15;;
60472;SDS011;46318;52.716;6.444;2023-05-10T00:30:40;15.80;;;14.20;;
60472;SDS011;46318;52.716;6.444;2023-05-10T00:33:06;15.90;;;14.25;;
60472;SDS011;46318;52.716;6.444;2023-05-10T00:35:32;15.95;;;14.27;;
60472;SDS011;46318;52.716;6.444;2023-05-10T00:37:58;16.25;;;14.55;;
60472;SDS011;46318;52.716;6.444;2023-05-10T00:40:24;17.00;;;14.73;;
60472;SDS011;46318;52.716;6.444;2023-05-10T00:42:50;16.25;;;14.38;;
60472;SDS011;46318;52.716;6.444;2023-05-10T00:45:16;16.52;;;14.82;;
60472;SDS011;46318;52.716;6.444;2023-05-10T00:47:42;15.23;;;13.70;;
60472;SDS011;46318;52.716;6.444;2023-05-10T00:50:08;15.07;;;13.57;;
60472;SDS011;46318;52.716;6.444;2023-05-10T00:52:34;15.70;;;13.52;;
60472;SDS011;46318;52.716;6.444;2023-05-10T00:55:00;14.77;;;13.18;;
60472;SDS011;46318;52.716;6.444;2023-05-10T00:57:28;14.93;;;13.50;;
60472;SDS011;46318;52.716;6.444;2023-05-10T00:59:54;15.35;;;13.75;;
60472;SDS011;46318;52.716;6.444;2023-05-10T01:02:20;14.52;;;12.95;;
60472;SDS011;46318;52.716;6.444;2023-05-10T01:04:45;14.52;;;12.98;;
60472;SDS011;46318;52.716;6.444;2023-05-10T01:07:12;13.93;;;12.32;;
60472;SDS011;46318;52.716;6.444;2023-05-10T01:09:38;13.43;;;11.88;;
60472;SDS011;46318;52.716;6.444;2023-05-10T01:12:04;11.98;;;10.77;;
60472;SDS011;46318;52.716;6.444;2023-05-10T01:14:32;11.63;;;10.43;;
60472;SDS011;46318;52.716;6.444;2023-05-10T01:16:58;11.93;;;10.73;;
60472;SDS011;46318;52.716;6.444;2023-05-10T01:19:26;12.75;;;10.75;;
60472;SDS011;46318;52.716;6.444;2023-05-10T01:22:42;10.40;;;9.45;;
60472;SDS011;46318;52.716;6.444;2023-05-10T01:36:36;10.90;;;9.88;;
60472;SDS011;46318;52.716;6.444;2023-05-10T01:39:32;10.57;;;9.48;;
60472;SDS011;46318;52.716;6.444;2023-05-10T01:42:11;10.80;;;9.60;;
60472;SDS011;46318;52.716;6.444;2023-05-10T01:44:58;9.77;;;8.77;;
60472;SDS011;46318;52.716;6.444;2023-05-10T01:50:41;9.45;;;8.45;;
60472;SDS011;46318;52.716;6.444;2023-05-10T01:53:11;9.70;;;8.70;;
60472;SDS011;46318;52.716;6.444;2023-05-10T01:55:46;10.18;;;8.95;;
60472;SDS011;46318;52.716;6.444;2023-05-10T01:58:27;10.35;;;8.82;;
60472;SDS011;46318;52.716;6.444;2023-05-10T02:00:55;9.52;;;8.57;;
60472;SDS011;46318;52.716;6.444;2023-05-10T02:03:25;8.98;;;8.07;;
60472;SDS011;46318;52.716;6.444;2023-05-10T02:05:53;9.30;;;8.40;;
60472;SDS011;46318;52.716;6.444;2023-05-10T02:08:21;10.43;;;9.32;;
60472;SDS011;46318;52.716;6.444;2023-05-10T02:10:49;9.80;;;8.32;;
60472;SDS011;46318;52.716;6.444;2023-05-10T02:13:18;9.63;;;8.73;;
60472;SDS011;46318;52.716;6.444;2023-05-10T02:15:46;8.55;;;7.75;;
60472;SDS011;46318;52.716;6.444;2023-05-10T02:18:14;8.95;;;8.02;;
60472;SDS011;46318;52.716;6.444;2023-05-10T02:20:41;8.98;;;8.18;;
60472;SDS011;46318;52.716;6.444;2023-05-10T02:23:09;9.15;;;8.25;;
60472;SDS011;46318;52.716;6.444;2023-05-10T02:25:36;9.05;;;8.02;;
60472;SDS011;46318;52.716;6.444;2023-05-10T02:28:04;8.27;;;7.47;;
60472;SDS011;46318;52.716;6.444;2023-05-10T02:30:32;9.55;;;8.55;;
60472;SDS011;46318;52.716;6.444;2023-05-10T02:32:59;9.02;;;8.13;;
60472;SDS011;46318;52.716;6.444;2023-05-10T02:35:28;8.20;;;7.40;;
60472;SDS011;46318;52.716;6.444;2023-05-10T02:37:54;10.25;;;8.00;;
60472;SDS011;46318;52.716;6.444;2023-05-10T02:40:21;9.77;;;7.70;;
60472;SDS011;46318;52.716;6.444;2023-05-10T02:42:50;8.50;;;7.35;;
60472;SDS011;46318;52.716;6.444;2023-05-10T02:45:20;9.18;;;8.27;;
60472;SDS011;46318;52.716;6.444;2023-05-10T02:47:51;9.13;;;8.27;;
60472;SDS011;46318;52.716;6.444;2023-05-10T02:50:17;9.98;;;8.15;;
60472;SDS011;46318;52.716;6.444;2023-05-10T02:52:49;10.15;;;7.95;;
60472;SDS011;46318;52.716;6.444;2023-05-10T02:55:17;8.70;;;7.82;;
60472;SDS011;46318;52.716;6.444;2023-05-10T02:57:51;8.85;;;7.95;;
60472;SDS011;46318;52.716;6.444;2023-05-10T03:00:22;9.23;;;8.32;;
60472;SDS011;46318;52.716;6.444;2023-05-10T03:02:49;10.30;;;9.23;;
60472;SDS011;46318;52.716;6.444;2023-05-10T03:05:15;9.75;;;8.43;;
60472;SDS011;46318;52.716;6.444;2023-05-10T03:07:41;9.23;;;8.32;;
60472;SDS011;46318;52.716;6.444;2023-05-10T03:10:07;9.98;;;8.70;;
60472;SDS011;46318;52.716;6.444;2023-05-10T03:18:07;9.57;;;8.57;;
60472;SDS011;46318;52.716;6.444;2023-05-10T03:20:57;10.88;;;9.25;;
60472;SDS011;46318;52.716;6.444;2023-05-10T03:23:30;10.45;;;9.45;;
60472;SDS011;46318;52.716;6.444;2023-05-10T03:26:00;10.90;;;9.73;;
60472;SDS011;46318;52.716;6.444;2023-05-10T03:28:27;11.05;;;9.75;;
60472;SDS011;46318;52.716;6.444;2023-05-10T03:30:55;11.13;;;9.27;;
60472;SDS011;46318;52.716;6.444;2023-05-10T03:33:21;10.93;;;9.43;;
60472;SDS011;46318;52.716;6.444;2023-05-10T03:35:47;10.27;;;9.20;;
60472;SDS011;46318;52.716;6.444;2023-05-10T03:38:13;14.13;;;10.65;;
60472;SDS011;46318;52.716;6.444;2023-05-10T03:40:39;10.60;;;9.52;;
60472;SDS011;46318;52.716;6.444;2023-05-10T03:43:05;12.07;;;10.57;;
60472;SDS011;46318;52.716;6.444;2023-05-10T03:45:31;10.98;;;9.55;;
60472;SDS011;46318;52.716;6.444;2023-05-10T03:47:57;11.25;;;10.13;;
60472;SDS011;46318;52.716;6.444;2023-05-10T03:50:23;11.27;;;10.05;;
60472;SDS011;46318;52.716;6.444;2023-05-10T03:52:49;12.15;;;9.93;;
60472;SDS011;46318;52.716;6.444;2023-05-10T03:55:15;11.82;;;10.63;;
60472;SDS011;46318;52.716;6.444;2023-05-10T03:57:41;13.13;;;11.20;;
60472;SDS011;46318;52.716;6.444;2023-05-10T04:00:08;12.70;;;10.52;;
60472;SDS011;46318;52.716;6.444;2023-05-10T04:02:34;12.40;;;11.07;;
60472;SDS011;46318;52.716;6.444;2023-05-10T04:05:01;13.32;;;11.45;;
60472;SDS011;46318;52.716;6.444;2023-05-10T04:07:27;12.90;;;10.45;;
60472;SDS011;46318;52.716;6.444;2023-05-10T04:09:54;11.02;;;9.82;;
60472;SDS011;46318;52.716;6.444;2023-05-10T04:12:20;11.25;;;10.05;;
60472;SDS011;46318;52.716;6.444;2023-05-10T04:14:45;12.32;;;10.43;;
60472;SDS011;46318;52.716;6.444;2023-05-10T04:17:11;11.20;;;10.02;;
60472;SDS011;46318;52.716;6.444;2023-05-10T04:19:37;11.68;;;10.10;;
60472;SDS011;46318;52.716;6.444;2023-05-10T04:22:03;12.57;;;9.57;;
60472;SDS011;46318;52.716;6.444;2023-05-10T04:24:29;14.25;;;10.27;;
60472;SDS011;46318;52.716;6.444;2023-05-10T04:26:55;12.25;;;10.07;;
60472;SDS011;46318;52.716;6.444;2023-05-10T04:29:21;15.52;;;10.63;;
60472;SDS011;46318;52.716;6.444;2023-05-10T04:31:47;10.23;;;9.23;;
60472;SDS011;46318;52.716;6.444;2023-05-10T04:34:13;10.65;;;8.88;;
60472;SDS011;46318;52.716;6.444;2023-05-10T04:36:39;10.38;;;9.27;;
60472;SDS011;46318;52.716;6.444;2023-05-10T04:39:05;10.45;;;8.13;;
60472;SDS011;46318;52.716;6.444;2023-05-10T04:41:31;9.68;;;8.00;;
60472;SDS011;46318;52.716;6.444;2023-05-10T04:43:57;10.70;;;9.02;;
60472;SDS011;46318;52.716;6.444;2023-05-10T04:46:23;9.77;;;8.25;;
60472;SDS011;46318;52.716;6.444;2023-05-10T04:48:48;12.68;;;9.35;;
60472;SDS011;46318;52.716;6.444;2023-05-10T04:51:14;13.57;;;9.75;;
60472;SDS011;46318;52.716;6.444;2023-05-10T04:53:40;11.88;;;9.55;;
60472;SDS011;46318;52.716;6.444;2023-05-10T04:56:06;11.15;;;8.88;;
60472;SDS011;46318;52.716;6.444;2023-05-10T04:58:32;11.73;;;9.40;;
60472;SDS011;46318;52.716;6.444;2023-05-10T05:01:04;12.07;;;9.90;;
60472;SDS011;46318;52.716;6.444;2023-05-10T05:03:32;12.25;;;9.88;;
60472;SDS011;46318;52.716;6.444;2023-05-10T05:05:59;12.00;;;9.20;;
60472;SDS011;46318;52.716;6.444;2023-05-10T05:08:24;11.98;;;8.60;;
60472;SDS011;46318;52.716;6.444;2023-05-10T05:10:51;12.75;;;9.20;;
60472;SDS011;46318;52.716;6.444;2023-05-10T05:13:17;11.07;;;8.82;;
60472;SDS011;46318;52.716;6.444;2023-05-10T05:15:43;12.32;;;9.45;;
60472;SDS011;46318;52.716;6.444;2023-05-10T05:18:09;10.55;;;9.45;;
60472;SDS011;46318;52.716;6.444;2023-05-10T05:20:35;12.52;;;9.73;;
60472;SDS011;46318;52.716;6.444;2023-05-10T05:23:01;12.48;;;9.73;;
60472;SDS011;46318;52.716;6.444;2023-05-10T05:25:26;13.35;;;10.30;;
60472;SDS011;46318;52.716;6.444;2023-05-10T05:27:53;12.13;;;8.88;;
60472;SDS011;46318;52.716;6.444;2023-05-10T05:30:19;11.98;;;9.57;;
60472;SDS011;46318;52.716;6.444;2023-05-10T05:32:45;12.48;;;9.88;;
60472;SDS011;46318;52.716;6.444;2023-05-10T05:35:12;13.60;;;9.70;;
60472;SDS011;46318;52.716;6.444;2023-05-10T05:37:38;10.48;;;9.38;;
60472;SDS011;46318;52.716;6.444;2023-05-10T05:40:05;13.07;;;10.30;;
60472;SDS011;46318;52.716;6.444;2023-05-10T05:42:31;13.10;;;10.15;;
60472;SDS011;46318;52.716;6.444;2023-05-10T05:44:57;14.30;;;10.38;;
60472;SDS011;46318;52.716;6.444;2023-05-10T05:47:24;14.15;;;10.50;;
60472;SDS011;46318;52.716;6.444;2023-05-10T05:49:50;12.95;;;10.18;;
60472;SDS011;46318;52.716;6.444;2023-05-10T05:52:16;13.50;;;10.07;;
60472;SDS011;46318;52.716;6.444;2023-05-10T05:54:41;15.48;;;10.15;;
60472;SDS011;46318;52.716;6.444;2023-05-10T05:57:07;13.85;;;9.95;;
60472;SDS011;46318;52.716;6.444;2023-05-10T05:59:34;15.18;;;11.43;;
60472;SDS011;46318;52.716;6.444;2023-05-10T06:01:59;15.05;;;9.95;;
60472;SDS011;46318;52.716;6.444;2023-05-10T06:04:25;13.90;;;10.32;;
60472;SDS011;46318;52.716;6.444;2023-05-10T06:06:51;14.18;;;9.68;;
60472;SDS011;46318;52.716;6.444;2023-05-10T06:09:17;15.90;;;10.45;;
60472;SDS011;46318;52.716;6.444;2023-05-10T06:11:43;15.73;;;10.80;;
60472;SDS011;46318;52.716;6.444;2023-05-10T06:14:09;14.82;;;10.07;;
60472;SDS011;46318;52.716;6.444;2023-05-10T06:16:35;17.63;;;10.88;;
60472;SDS011;46318;52.716;6.444;2023-05-10T06:19:01;17.02;;;10.90;;
60472;SDS011;46318;52.716;6.444;2023-05-10T06:21:27;14.45;;;10.30;;
60472;SDS011;46318;52.716;6.444;2023-05-10T06:23:53;16.05;;;10.90;;
60472;SDS011;46318;52.716;6.444;2023-05-10T06:26:22;15.63;;;11.13;;
60472;SDS011;46318;52.716;6.444;2023-05-10T06:28:48;18.58;;;10.52;;
60472;SDS011;46318;52.716;6.444;2023-05-10T06:31:14;16.17;;;10.73;;
60472;SDS011;46318;52.716;6.444;2023-05-10T06:33:41;15.55;;;10.10;;
60472;SDS011;46318;52.716;6.444;2023-05-10T06:36:06;15.30;;;10.45;;
60472;SDS011;46318;52.716;6.444;2023-05-10T06:38:32;16.17;;;10.90;;
60472;SDS011;46318;52.716;6.444;2023-05-10T06:40:58;17.23;;;9.90;;
60472;SDS011;46318;52.716;6.444;2023-05-10T06:43:24;18.30;;;10.18;;
60472;SDS011;46318;52.716;6.444;2023-05-10T06:45:51;14.70;;;9.23;;
60472;SDS011;46318;52.716;6.444;2023-05-10T06:48:17;16.40;;;10.73;;
60472;SDS011;46318;52.716;6.444;2023-05-10T06:50:43;15.10;;;10.00;;
60472;SDS011;46318;52.716;6.444;2023-05-10T06:53:09;15.13;;;9.40;;
60472;SDS011;46318;52.716;6.444;2023-05-10T06:55:34;12.35;;;8.57;;
60472;SDS011;46318;52.716;6.444;2023-05-10T06:58:00;13.80;;;8.80;;
60472;SDS011;46318;52.716;6.444;2023-05-10T07:00:27;11.25;;;8.52;;
60472;SDS011;46318;52.716;6.444;2023-05-10T07:02:53;13.82;;;9.93;;
60472;SDS011;46318;52.716;6.444;2023-05-10T07:05:20;13.13;;;9.02;;
60472;SDS011;46318;52.716;6.444;2023-05-10T07:07:46;15.23;;;9.77;;
60472;SDS011;46318;52.716;6.444;2023-05-10T07:10:12;15.68;;;9.32;;
60472;SDS011;46318;52.716;6.444;2023-05-10T07:12:40;13.45;;;8.98;;
60472;SDS011;46318;52.716;6.444;2023-05-10T07:15:07;11.95;;;8.90;;
60472;SDS011;46318;52.716;6.444;2023-05-10T07:17:34;11.75;;;8.63;;
60472;SDS011;46318;52.716;6.444;2023-05-10T07:19:59;13.98;;;9.00;;
60472;SDS011;46318;52.716;6.444;2023-05-10T07:22:26;14.35;;;9.00;;
60472;SDS011;46318;52.716;6.444;2023-05-10T07:24:52;14.52;;;9.45;;
60472;SDS011;46318;52.716;6.444;2023-05-10T07:27:18;14.00;;;8.68;;
60472;SDS011;46318;52.716;6.444;2023-05-10T07:29:44;11.80;;;8.57;;
60472;SDS011;46318;52.716;6.444;2023-05-10T07:32:10;14.82;;;8.15;;
60472;SDS011;46318;52.716;6.444;2023-05-10T07:34:35;13.15;;;8.27;;
60472;SDS011;46318;52.716;6.444;2023-05-10T07:37:01;12.75;;;8.38;;
60472;SDS011;46318;52.716;6.444;2023-05-10T07:39:27;14.25;;;8.55;;
60472;SDS011;46318;52.716;6.444;2023-05-10T07:41:53;9.73;;;7.68;;
60472;SDS011;46318;52.716;6.444;2023-05-10T07:44:20;11.68;;;7.82;;
60472;SDS011;46318;52.716;6.444;2023-05-10T07:46:46;11.73;;;6.95;;
60472;SDS011;46318;52.716;6.444;2023-05-10T07:49:13;12.10;;;8.40;;
60472;SDS011;46318;52.716;6.444;2023-05-10T07:51:39;11.50;;;7.78;;
60472;SDS011;46318;52.716;6.444;2023-05-10T07:54:05;12.07;;;8.18;;
60472;SDS011;46318;52.716;6.444;2023-05-10T07:56:31;10.43;;;6.60;;
60472;SDS011;46318;52.716;6.444;2023-05-10T07:59:01;7.20;;;5.60;;
60472;SDS011;46318;52.716;6.444;2023-05-10T08:01:32;6.72;;;5.85;;
60472;SDS011;46318;52.716;6.444;2023-05-10T08:03:59;7.30;;;5.47;;
60472;SDS011;46318;52.716;6.444;2023-05-10T08:06:26;7.20;;;5.10;;
60472;SDS011;46318;52.716;6.444;2023-05-10T08:08:54;7.38;;;5.40;;
60472;SDS011;46318;52.716;6.444;2023-05-10T08:11:21;6.90;;;4.97;;
60472;SDS011;46318;52.716;6.444;2023-05-10T08:13:48;5.72;;;4.60;;
60472;SDS011;46318;52.716;6.444;2023-05-10T08:16:15;6.18;;;4.72;;
60472;SDS011;46318;52.716;6.444;2023-05-10T08:18:42;6.50;;;4.38;;
60472;SDS011;46318;52.716;6.444;2023-05-10T08:21:10;6.32;;;4.60;;
60472;SDS011;46318;52.716;6.444;2023-05-10T08:23:39;4.70;;;4.30;;
60472;SDS011;46318;52.716;6.444;2023-05-10T08:26:05;6.63;;;4.28;;
60472;SDS011;46318;52.716;6.444;2023-05-10T08:28:31;4.90;;;3.97;;
60472;SDS011;46318;52.716;6.444;2023-05-10T08:30:57;5.95;;;4.57;;
60472;SDS011;46318;52.716;6.444;2023-05-10T08:33:23;6.68;;;4.47;;
60472;SDS011;46318;52.716;6.444;2023-05-10T08:35:49;5.22;;;4.65;;
60472;SDS011;46318;52.716;6.444;2023-05-10T08:38:15;6.82;;;5.20;;
60472;SDS011;46318;52.716;6.444;2023-05-10T08:40:41;5.72;;;4.68;;
60472;SDS011;46318;52.716;6.444;2023-05-10T08:43:09;5.03;;;4.57;;
60472;SDS011;46318;52.716;6.444;2023-05-10T08:45:37;6.35;;;5.07;;
60472;SDS011;46318;52.716;6.444;2023-05-10T08:48:06;6.13;;;5.20;;
60472;SDS011;46318;52.716;6.444;2023-05-10T08:50:36;6.28;;;5.32;;
60472;SDS011;46318;52.716;6.444;2023-05-10T08:53:05;5.95;;;5.28;;
60472;SDS011;46318;52.716;6.444;2023-05-10T08:55:36;6.03;;;4.60;;
60472;SDS011;46318;52.716;6.444;2023-05-10T08:58:04;7.20;;;4.53;;
60472;SDS011;46318;52.716;6.444;2023-05-10T09:00:31;6.60;;;4.97;;
60472;SDS011;46318;52.716;6.444;2023-05-10T09:03:00;5.38;;;4.38;;
60472;SDS011;46318;52.716;6.444;2023-05-10T09:05:29;5.45;;;4.90;;
60472;SDS011;46318;52.716;6.444;2023-05-10T09:07:55;6.68;;;5.22;;
60472;SDS011;46318;52.716;6.444;2023-05-10T09:10:21;7.32;;;5.82;;
60472;SDS011;46318;52.716;6.444;2023-05-10T09:12:52;6.93;;;5.50;;
60472;SDS011;46318;52.716;6.444;2023-05-10T09:15:27;7.20;;;5.55;;
60472;SDS011;46318;52.716;6.444;2023-05-10T09:17:52;7.30;;;5.60;;
60472;SDS011;46318;52.716;6.444;2023-05-10T09:20:20;7.18;;;5.70;;
60472;SDS011;46318;52.716;6.444;2023-05-10T09:22:46;7.40;;;5.80;;
60472;SDS011;46318;52.716;6.444;2023-05-10T09:25:15;6.78;;;6.03;;
60472;SDS011;46318;52.716;6.444;2023-05-10T09:27:46;7.28;;;6.47;;
60472;SDS011;46318;52.716;6.444;2023-05-10T09:30:15;6.70;;;6.00;;
60472;SDS011;46318;52.716;6.444;2023-05-10T09:32:44;7.32;;;5.95;;
60472;SDS011;46318;52.716;6.444;2023-05-10T09:35:16;8.65;;;6.65;;
60472;SDS011;46318;52.716;6.444;2023-05-10T09:37:45;9.90;;;8.10;;
60472;SDS011;46318;52.716;6.444;2023-05-10T09:40:13;9.10;;;7.40;;
60472;SDS011;46318;52.716;6.444;2023-05-10T09:42:42;9.23;;;7.53;;
60472;SDS011;46318;52.716;6.444;2023-05-10T09:45:20;9.52;;;7.65;;
60472;SDS011;46318;52.716;6.444;2023-05-10T09:47:48;8.18;;;7.28;;
60472;SDS011;46318;52.716;6.444;2023-05-10T09:50:14;9.63;;;8.13;;
60472;SDS011;46318;52.716;6.444;2023-05-10T09:52:50;9.38;;;7.85;;
60472;SDS011;46318;52.716;6.444;2023-05-10T09:55:45;10.57;;;8.63;;
60472;SDS011;46318;52.716;6.444;2023-05-10T09:58:14;10.80;;;9.00;;
60472;SDS011;46318;52.716;6.444;2023-05-10T10:00:44;10.27;;;8.82;;
60472;SDS011;46318;52.716;6.444;2023-05-10T10:03:18;11.23;;;9.45;;
60472;SDS011;46318;52.716;6.444;2023-05-10T10:05:46;11.35;;;9.60;;
60472;SDS011;46318;52.716;6.444;2023-05-10T10:08:13;10.75;;;9.63;;
60472;SDS011;46318;52.716;6.444;2023-05-10T10:10:41;11.95;;;10.10;;
60472;SDS011;46318;52.716;6.444;2023-05-10T10:13:10;12.55;;;9.77;;
60472;SDS011;46318;52.716;6.444;2023-05-10T10:15:36;12.13;;;9.85;;
60472;SDS011;46318;52.716;6.444;2023-05-10T10:18:02;11.07;;;8.82;;
60472;SDS011;46318;52.716;6.444;2023-05-10T10:20:29;10.55;;;8.98;;
60472;SDS011;46318;52.716;6.444;2023-05-10T10:22:55;12.50;;;9.80;;
60472;SDS011;46318;52.716;6.444;2023-05-10T10:25:21;12.25;;;9.43;;
60472;SDS011;46318;52.716;6.444;2023-05-10T10:27:49;11.40;;;9.27;;
60472;SDS011;46318;52.716;6.444;2023-05-10T10:30:39;10.85;;;8.52;;
60472;SDS011;46318;52.716;6.444;2023-05-10T10:36:23;10.27;;;8.73;;
60472;SDS011;46318;52.716;6.444;2023-05-10T10:41:34;10.48;;;8.82;;
60472;SDS011;46318;52.716;6.444;2023-05-10T11:00:18;10.65;;;7.90;;
60472;SDS011;46318;52.716;6.444;2023-05-10T11:02:55;9.63;;;7.95;;
60472;SDS011;46318;52.716;6.444;2023-05-10T11:10:52;9.55;;;8.20;;
60472;SDS011;46318;52.716;6.444;2023-05-10T11:15:58;10.93;;;9.75;;
60472;SDS011;46318;52.716;6.444;2023-05-10T11:18:38;10.85;;;9.50;;
60472;SDS011;46318;52.716;6.444;2023-05-10T11:21:04;11.23;;;9.65;;
60472;SDS011;46318;52.716;6.444;2023-05-10T11:23:54;12.13;;;10.73;;
60472;SDS011;46318;52.716;6.444;2023-05-10T11:26:21;11.63;;;9.27;;
60472;SDS011;46318;52.716;6.444;2023-05-10T11:28:56;11.48;;;8.68;;
60472;SDS011;46318;52.716;6.444;2023-05-10T11:31:23;14.15;;;9.05;;
60472;SDS011;46318;52.716;6.444;2023-05-10T11:33:52;11.15;;;8.88;;
60472;SDS011;46318;52.716;6.444;2023-05-10T11:36:24;10.77;;;9.68;;
60472;SDS011;46318;52.716;6.444;2023-05-10T11:38:53;11.18;;;9.93;;
60472;SDS011;46318;52.716;6.444;2023-05-10T11:41:21;11.75;;;10.50;;
60472;SDS011;46318;52.716;6.444;2023-05-10T11:43:49;12.55;;;11.20;;
60472;SDS011;46318;52.716;6.444;2023-05-10T11:46:18;11.60;;;10.40;;
60472;SDS011;46318;52.716;6.444;2023-05-10T11:48:49;13.40;;;10.80;;
60472;SDS011;46318;52.716;6.444;2023-05-10T11:51:22;12.52;;;11.10;;
60472;SDS011;46318;52.716;6.444;2023-05-10T11:53:49;12.57;;;10.93;;
60472;SDS011;46318;52.716;6.444;2023-05-10T11:56:18;12.02;;;9.85;;
60472;SDS011;46318;52.716;6.444;2023-05-10T11:58:51;12.27;;;10.85;;
60472;SDS011;46318;52.716;6.444;2023-05-10T12:01:22;11.75;;;9.82;;
60472;SDS011;46318;52.716;6.444;2023-05-10T12:03:50;9.70;;;8.02;;
60472;SDS011;46318;52.716;6.444;2023-05-10T12:06:19;9.32;;;7.75;;
60472;SDS011;46318;52.716;6.444;2023-05-10T12:08:46;9.05;;;8.07;;
60472;SDS011;46318;52.716;6.444;2023-05-10T12:11:17;9.00;;;7.90;;
60472;SDS011;46318;52.716;6.444;2023-05-10T12:13:43;9.93;;;7.85;;
60472;SDS011;46318;52.716;6.444;2023-05-10T12:16:30;9.05;;;8.15;;
60472;SDS011;46318;52.716;6.444;2023-05-10T12:18:57;10.57;;;7.88;;
60472;SDS011;46318;52.716;6.444;2023-05-10T12:21:25;9.60;;;8.60;;
60472;SDS011;46318;52.716;6.444;2023-05-10T12:23:54;12.50;;;9.77;;
60472;SDS011;46318;52.716;6.444;2023-05-10T12:26:25;14.07;;;10.40;;
60472;SDS011;46318;52.716;6.444;2023-05-10T12:28:53;11.00;;;9.60;;
60472;SDS011;46318;52.716;6.444;2023-05-10T12:31:19;11.75;;;10.20;;
60472;SDS011;46318;52.716;6.444;2023-05-10T12:33:45;11.13;;;10.05;;
60472;SDS011;46318;52.716;6.444;2023-05-10T12:36:13;10.63;;;9.52;;
60472;SDS011;46318;52.716;6.444;2023-05-10T12:38:41;11.35;;;10.15;;
60472;SDS011;46318;52.716;6.444;2023-05-10T12:41:10;11.07;;;9.82;;
60472;SDS011;46318;52.716;6.444;2023-05-10T12:43:39;12.90;;;10.20;;
60472;SDS011;46318;52.716;6.444;2023-05-10T12:46:12;11.63;;;10.18;;
60472;SDS011;46318;52.716;6.444;2023-05-10T12:48:40;14.98;;;10.30;;
60472;SDS011;46318;52.716;6.444;2023-05-10T12:51:11;11.88;;;9.20;;
60472;SDS011;46318;52.716;6.444;2023-05-10T12:53:40;12.93;;;10.00;;
60472;SDS011;46318;52.716;6.444;2023-05-10T12:56:06;12.77;;;10.05;;
60472;SDS011;46318;52.716;6.444;2023-05-10T12:58:32;12.18;;;9.77;;
60472;SDS011;46318;52.716;6.444;2023-05-10T13:00:59;13.05;;;10.40;;
60472;SDS011;46318;52.716;6.444;2023-05-10T13:03:26;12.63;;;9.45;;
60472;SDS011;46318;52.716;6.444;2023-05-10T13:05:52;10.68;;;8.80;;
60472;SDS011;46318;52.716;6.444;2023-05-10T13:08:18;10.40;;;8.68;;
60472;SDS011;46318;52.716;6.444;2023-05-10T13:10:44;10.30;;;8.75;;
60472;SDS011;46318;52.716;6.444;2023-05-10T13:13:10;10.55;;;8.45;;
60472;SDS011;46318;52.716;6.444;2023-05-10T13:15:36;10.90;;;7.95;;
60472;SDS011;46318;52.716;6.444;2023-05-10T13:18:02;9.80;;;8.23;;
60472;SDS011;46318;52.716;6.444;2023-05-10T13:20:28;8.05;;;7.22;;
60472;SDS011;46318;52.716;6.444;2023-05-10T13:22:53;5.90;;;5.30;;
60472;SDS011;46318;52.716;6.444;2023-05-10T13:25:19;8.57;;;6.63;;
60472;SDS011;46318;52.716;6.444;2023-05-10T13:27:45;9.88;;;7.20;;
60472;SDS011;46318;52.716;6.444;2023-05-10T13:30:11;9.45;;;7.80;;
60472;SDS011;46318;52.716;6.444;2023-05-10T13:32:37;10.13;;;7.70;;
60472;SDS011;46318;52.716;6.444;2023-05-10T13:35:03;9.70;;;8.13;;
60472;SDS011;46318;52.716;6.444;2023-05-10T13:37:30;9.15;;;8.05;;
60472;SDS011;46318;52.716;6.444;2023-05-10T13:40:00;10.38;;;8.93;;
60472;SDS011;46318;52.716;6.444;2023-05-10T13:42:26;10.43;;;8.70;;
60472;SDS011;46318;52.716;6.444;2023-05-10T13:44:52;8.88;;;7.97;;
60472;SDS011;46318;52.716;6.444;2023-05-10T13:47:18;10.38;;;8.70;;
60472;SDS011;46318;52.716;6.444;2023-05-10T13:49:44;9.27;;;8.15;;
60472;SDS011;46318;52.716;6.444;2023-05-10T13:52:09;10.30;;;8.68;;
60472;SDS011;46318;52.716;6.444;2023-05-10T13:54:36;11.05;;;9.02;;
60472;SDS011;46318;52.716;6.444;2023-05-10T13:57:03;11.05;;;8.73;;
60472;SDS011;46318;52.716;6.444;2023-05-10T13:59:30;12.32;;;9.27;;
60472;SDS011;46318;52.716;6.444;2023-05-10T14:01:59;10.10;;;9.05;;
60472;SDS011;46318;52.716;6.444;2023-05-10T14:04:27;9.77;;;8.73;;
60472;SDS011;46318;52.716;6.444;2023-05-10T14:06:54;9.68;;;8.68;;
60472;SDS011;46318;52.716;6.444;2023-05-10T14:09:20;10.18;;;7.72;;
60472;SDS011;46318;52.716;6.444;2023-05-10T14:11:46;12.57;;;9.35;;
60472;SDS011;46318;52.716;6.444;2023-05-10T14:14:12;11.57;;;10.05;;
60472;SDS011;46318;52.716;6.444;2023-05-10T14:16:41;13.57;;;10.55;;
60472;SDS011;46318;52.716;6.444;2023-05-10T14:19:08;11.57;;;9.75;;
60472;SDS011;46318;52.716;6.444;2023-05-10T14:21:34;11.77;;;10.40;;
60472;SDS011;46318;52.716;6.444;2023-05-10T14:24:00;12.43;;;10.38;;
60472;SDS011;46318;52.716;6.444;2023-05-10T14:26:26;11.75;;;9.95;;
60472;SDS011;46318;52.716;6.444;2023-05-10T14:28:52;11.10;;;9.57;;
60472;SDS011;46318;52.716;6.444;2023-05-10T14:31:18;11.85;;;10.65;;
60472;SDS011;46318;52.716;6.444;2023-05-10T14:33:45;12.13;;;10.20;;
60472;SDS011;46318;52.716;6.444;2023-05-10T14:36:12;12.63;;;9.93;;
60472;SDS011;46318;52.716;6.444;2023-05-10T14:38:39;15.10;;;10.57;;
60472;SDS011;46318;52.716;6.444;2023-05-10T14:41:05;14.35;;;11.10;;
60472;SDS011;46318;52.716;6.444;2023-05-10T14:43:31;13.60;;;10.57;;
60472;SDS011;46318;52.716;6.444;2023-05-10T14:45:57;11.80;;;9.93;;
60472;SDS011;46318;52.716;6.444;2023-05-10T14:48:23;12.15;;;9.40;;
60472;SDS011;46318;52.716;6.444;2023-05-10T14:50:50;11.52;;;10.30;;
60472;SDS011;46318;52.716;6.444;2023-05-10T14:53:17;11.18;;;9.43;;
60472;SDS011;46318;52.716;6.444;2023-05-10T14:55:43;12.52;;;9.45;;
60472;SDS011;46318;52.716;6.444;2023-05-10T14:58:09;11.68;;;9.93;;
60472;SDS011;46318;52.716;6.444;2023-05-10T15:00:35;11.93;;;9.95;;
60472;SDS011;46318;52.716;6.444;2023-05-10T15:03:01;13.90;;;10.13;;
60472;SDS011;46318;52.716;6.444;2023-05-10T15:05:27;14.13;;;10.13;;
60472;SDS011;46318;52.716;6.444;2023-05-10T15:07:53;15.20;;;11.73;;
60472;SDS011;46318;52.716;6.444;2023-05-10T15:10:18;14.90;;;11.48;;
60472;SDS011;46318;52.716;6.444;2023-05-10T15:12:44;14.40;;;11.35;;
60472;SDS011;46318;52.716;6.444;2023-05-10T15:15:10;13.30;;;10.63;;
60472;SDS011;46318;52.716;6.444;2023-05-10T15:17:36;12.25;;;10.60;;
60472;SDS011;46318;52.716;6.444;2023-05-10T15:20:02;14.63;;;11.63;;
60472;SDS011;46318;52.716;6.444;2023-05-10T15:22:29;12.57;;;10.52;;
60472;SDS011;46318;52.716;6.444;2023-05-10T15:24:57;13.68;;;10.88;;
60472;SDS011;46318;52.716;6.444;2023-05-10T15:27:24;13.50;;;10.52;;